createdAt,value
2018-02-27T00:00:54.454Z,39.40
2018-02-27T00:03:22.676Z,39.60
2018-02-27T00:05:51.704Z,39.10
2018-02-27T00:08:20.060Z,38.60
2018-02-27T00:10:48.940Z,39.40
2018-02-27T00:13:18.030Z,39.10
2018-02-27T00:15:46.309Z,39.10
2018-02-27T00:18:15.448Z,39.50
2018-02-27T00:20:43.700Z,39.30
2018-02-27T00:23:12.783Z,39.40
2018-02-27T00:25:41.088Z,39.20
2018-02-27T00:28:09.377Z,39.20
2018-02-27T00:30:37.636Z,39.00
2018-02-27T00:33:05.901Z,38.80
2018-02-27T00:35:34.152Z,39.10
2018-02-27T00:38:03.293Z,39.20
2018-02-27T00:40:31.554Z,39.10
2018-02-27T00:42:59.818Z,39.10
2018-02-27T00:45:28.930Z,39.00
2018-02-27T00:47:57.210Z,38.90
2018-02-27T00:50:25.484Z,38.00
2018-02-27T00:52:53.725Z,38.70
2018-02-27T00:55:22.770Z,38.60
2018-02-27T00:57:51.098Z,38.90
2018-02-27T01:00:21.527Z,38.90
2018-02-27T01:02:49.966Z,38.70
2018-02-27T01:05:18.253Z,38.80
2018-02-27T01:07:46.506Z,38.80
2018-02-27T01:10:14.802Z,38.60
2018-02-27T01:12:43.043Z,38.70
2018-02-27T01:15:11.298Z,38.60
2018-02-27T01:17:40.431Z,38.90
2018-02-27T01:20:08.685Z,38.90
2018-02-27T01:22:36.968Z,38.70
2018-02-27T01:25:05.218Z,38.60
2018-02-27T01:27:35.031Z,38.50
2018-02-27T01:30:04.034Z,38.40
2018-02-27T01:32:34.202Z,38.60
2018-02-27T01:35:02.462Z,38.40
2018-02-27T01:37:30.737Z,38.40
2018-02-27T01:39:58.999Z,38.60
2018-02-27T01:42:27.546Z,38.80
2018-02-27T01:44:55.822Z,38.60
2018-02-27T01:47:24.837Z,38.50
2018-02-27T01:49:53.135Z,38.70
2018-02-27T01:52:21.501Z,38.70
2018-02-27T01:54:49.990Z,38.60
2018-02-27T01:57:18.266Z,38.80
2018-02-27T01:59:46.915Z,38.60
2018-02-27T02:02:15.177Z,38.70
2018-02-27T02:04:43.492Z,38.60
2018-02-27T02:07:11.854Z,39.40
2018-02-27T02:09:40.988Z,38.80
2018-02-27T02:12:09.269Z,38.80
2018-02-27T02:14:37.521Z,38.90
2018-02-27T02:17:06.639Z,38.80
2018-02-27T02:19:34.870Z,39.10
2018-02-27T02:22:03.986Z,39.10
2018-02-27T02:24:32.284Z,39.20
2018-02-27T02:27:00.540Z,39.10
2018-02-27T02:29:28.801Z,39.00
2018-02-27T02:31:57.910Z,39.00
2018-02-27T02:34:26.162Z,39.10
2018-02-27T02:36:55.260Z,39.30
2018-02-27T02:39:24.573Z,39.30
2018-02-27T02:42:04.558Z,39.30
2018-02-27T02:44:32.835Z,39.40
2018-02-27T02:47:01.061Z,39.30
2018-02-27T02:49:31.154Z,39.40
2018-02-27T02:52:00.425Z,39.50
2018-02-27T02:54:28.684Z,39.60
2018-02-27T02:56:57.062Z,39.30
2018-02-27T02:59:25.317Z,39.40
2018-02-27T03:01:55.528Z,39.40
2018-02-27T03:04:23.767Z,39.40
2018-02-27T03:06:52.080Z,39.40
2018-02-27T03:09:20.286Z,39.60
2018-02-27T03:11:48.634Z,39.40
2018-02-27T03:14:17.093Z,39.40
2018-02-27T03:16:45.759Z,39.40
2018-02-27T03:19:14.107Z,39.60
2018-02-27T03:21:42.362Z,39.30
2018-02-27T03:24:10.617Z,39.30
2018-02-27T03:26:38.905Z,39.40
2018-02-27T03:29:07.160Z,39.30
2018-02-27T03:31:35.461Z,39.40
2018-02-27T03:34:03.680Z,39.30
2018-02-27T03:36:32.861Z,39.20
2018-02-27T03:39:01.219Z,39.30
2018-02-27T03:41:29.587Z,39.00
2018-02-27T03:43:57.801Z,39.00
2018-02-27T03:46:26.042Z,39.00
2018-02-27T03:48:55.158Z,39.10
2018-02-27T03:51:24.240Z,39.20
2018-02-27T03:53:53.797Z,39.10
2018-02-27T03:56:22.040Z,39.20
2018-02-27T03:58:50.291Z,38.90
2018-02-27T04:01:19.313Z,39.00
2018-02-27T04:03:47.669Z,38.90
2018-02-27T04:06:16.729Z,39.10
2018-02-27T04:08:45.032Z,38.90
2018-02-27T04:11:15.733Z,39.50
2018-02-27T04:13:44.346Z,39.20
2018-02-27T04:16:12.577Z,39.20
2018-02-27T04:18:40.867Z,39.40
2018-02-27T04:21:09.105Z,39.70
2018-02-27T04:23:38.257Z,39.70
2018-02-27T04:26:06.545Z,39.50
2018-02-27T04:28:35.551Z,39.50
2018-02-27T04:31:04.565Z,39.40
2018-02-27T04:33:32.922Z,39.40
2018-02-27T04:36:02.022Z,39.80
2018-02-27T04:38:31.178Z,39.70
2018-02-27T04:41:00.124Z,39.90
2018-02-27T04:43:28.401Z,39.60
2018-02-27T04:45:57.537Z,39.90
2018-02-27T04:48:25.792Z,39.60
2018-02-27T04:50:54.367Z,39.70
2018-02-27T04:53:22.706Z,39.40
2018-02-27T04:55:50.926Z,39.20
2018-02-27T04:58:19.226Z,39.20
2018-02-27T05:00:47.487Z,39.40
2018-02-27T05:03:15.733Z,39.50
2018-02-27T05:05:44.026Z,39.60
2018-02-27T05:08:12.262Z,39.70
2018-02-27T05:10:41.286Z,39.70
2018-02-27T05:13:09.535Z,39.70
2018-02-27T05:15:37.848Z,39.50
2018-02-27T05:18:06.097Z,39.50
2018-02-27T05:20:34.332Z,39.30
2018-02-27T05:23:02.635Z,39.60
2018-02-27T05:25:30.865Z,39.40
2018-02-27T05:27:59.185Z,39.60
2018-02-27T05:30:27.388Z,39.40
2018-02-27T05:32:55.691Z,39.60
2018-02-27T05:35:23.932Z,39.60
2018-02-27T05:37:53.151Z,39.90
2018-02-27T05:40:21.580Z,39.70
2018-02-27T05:42:52.450Z,39.70
2018-02-27T05:45:21.658Z,39.80
2018-02-27T05:47:50.211Z,39.70
2018-02-27T05:50:18.585Z,39.60
2018-02-27T05:52:46.851Z,40.00
2018-02-27T05:55:16.890Z,40.50
2018-02-27T05:57:46.129Z,39.80
2018-02-27T06:00:14.491Z,39.80
2018-02-27T06:02:42.854Z,39.80
2018-02-27T06:05:11.883Z,40.00
2018-02-27T06:07:40.274Z,39.80
2018-02-27T06:10:08.577Z,40.00
2018-02-27T06:12:36.863Z,40.00
2018-02-27T06:15:05.106Z,40.10
2018-02-27T06:17:33.414Z,40.20
2018-02-27T06:20:01.703Z,40.20
2018-02-27T06:22:30.711Z,40.20
2018-02-27T06:24:59.983Z,40.20
2018-02-27T06:27:28.273Z,39.90
2018-02-27T06:29:57.472Z,40.00
2018-02-27T06:32:25.839Z,40.20
2018-02-27T06:34:54.187Z,40.80
2018-02-27T06:37:22.575Z,40.20
2018-02-27T06:39:50.905Z,40.20
2018-02-27T06:42:19.152Z,40.30
2018-02-27T06:44:48.261Z,40.10
2018-02-27T06:47:17.312Z,40.10
2018-02-27T06:49:45.617Z,40.20
2018-02-27T06:52:14.621Z,38.90
2018-02-27T06:54:43.025Z,40.00
2018-02-27T06:57:11.331Z,40.10
2018-02-27T06:59:39.609Z,39.90
2018-02-27T07:02:08.645Z,39.90
2018-02-27T07:04:36.913Z,40.00
2018-02-27T07:07:05.454Z,40.00
2018-02-27T07:09:33.727Z,39.80
2018-02-27T07:12:02.202Z,39.80
2018-02-27T07:14:30.510Z,39.90
2018-02-27T07:16:58.806Z,40.00
2018-02-27T07:19:27.841Z,40.50
2018-02-27T07:21:56.334Z,40.20
2018-02-27T07:24:24.672Z,40.30
2018-02-27T07:26:52.937Z,40.10
2018-02-27T07:29:21.280Z,40.20
2018-02-27T07:31:49.666Z,40.00
2018-02-27T07:34:17.943Z,40.30
2018-02-27T07:36:46.211Z,40.20
2018-02-27T07:39:14.562Z,40.30
2018-02-27T07:41:42.926Z,40.20
2018-02-27T07:44:11.188Z,40.30
2018-02-27T07:46:40.297Z,40.70
2018-02-27T07:49:08.598Z,40.80
2018-02-27T07:51:36.892Z,40.80
2018-02-27T07:54:05.120Z,40.80
2018-02-27T07:56:33.475Z,41.00
2018-02-27T07:59:01.701Z,41.10
2018-02-27T08:01:29.978Z,40.70
2018-02-27T08:03:58.361Z,42.40
2018-02-27T08:06:26.716Z,43.00
2018-02-27T08:08:54.976Z,41.80
2018-02-27T08:11:24.090Z,41.40
2018-02-27T08:13:53.348Z,41.40
2018-02-27T08:16:23.410Z,41.60
2018-02-27T08:18:51.850Z,41.30
2018-02-27T08:21:20.157Z,41.30
2018-02-27T08:23:48.561Z,41.30
2018-02-27T08:26:16.815Z,41.30
2018-02-27T08:28:45.066Z,41.30
2018-02-27T08:31:13.595Z,41.00
2018-02-27T08:33:42.865Z,40.80
2018-02-27T08:36:11.885Z,41.00
2018-02-27T08:38:40.225Z,41.00
2018-02-27T08:41:09.218Z,40.70
2018-02-27T08:43:37.501Z,40.80
2018-02-27T08:46:05.772Z,40.60
2018-02-27T08:48:34.040Z,40.10
2018-02-27T08:51:02.342Z,40.20
2018-02-27T08:53:30.749Z,40.20
2018-02-27T08:55:59.019Z,39.90
2018-02-27T08:58:28.001Z,39.80
2018-02-27T09:00:56.407Z,39.60
2018-02-27T09:03:24.656Z,39.10
2018-02-27T09:05:52.922Z,39.10
2018-02-27T09:08:21.206Z,38.80
2018-02-27T09:10:50.301Z,38.60
2018-02-27T09:13:18.652Z,38.20
2018-02-27T09:15:47.875Z,38.10
2018-02-27T09:18:16.125Z,37.90
2018-02-27T09:20:45.376Z,37.70
2018-02-27T09:23:14.566Z,37.60
2018-02-27T09:25:42.958Z,37.90
2018-02-27T09:28:11.212Z,37.60
2018-02-27T09:30:40.361Z,37.50
2018-02-27T09:33:08.647Z,37.20
2018-02-27T09:35:36.882Z,37.40
2018-02-27T09:38:05.220Z,36.90
2018-02-27T09:40:33.879Z,37.10
2018-02-27T09:43:02.121Z,36.60
2018-02-27T09:45:30.361Z,36.50
2018-02-27T09:48:02.541Z,36.40
2018-02-27T09:50:30.834Z,36.20
2018-02-27T09:52:59.106Z,36.50
2018-02-27T09:55:27.465Z,36.20
2018-02-27T09:57:55.827Z,35.90
2018-02-27T10:00:24.929Z,35.50
2018-02-27T10:02:53.277Z,35.40
2018-02-27T10:05:21.698Z,35.30
2018-02-27T10:07:49.998Z,35.50
2018-02-27T10:10:18.234Z,35.10
2018-02-27T10:12:46.484Z,34.90
2018-02-27T10:15:15.542Z,34.60
2018-02-27T10:17:43.881Z,34.60
2018-02-27T10:20:12.240Z,34.60
2018-02-27T10:22:40.540Z,34.70
2018-02-27T10:25:08.920Z,34.70
2018-02-27T10:27:38.144Z,34.80
2018-02-27T10:30:06.386Z,34.60
2018-02-27T10:32:34.823Z,34.40
2018-02-27T10:35:03.604Z,34.10
2018-02-27T10:37:31.825Z,34.00
2018-02-27T10:40:00.097Z,33.10
2018-02-27T10:42:28.384Z,33.70
2018-02-27T10:44:56.603Z,33.50
2018-02-27T10:47:24.905Z,33.20
2018-02-27T10:49:53.142Z,33.20
2018-02-27T10:52:21.381Z,33.40
2018-02-27T10:54:50.423Z,33.50
2018-02-27T10:57:18.691Z,33.50
2018-02-27T10:59:47.037Z,33.20
2018-02-27T11:02:15.272Z,32.90
2018-02-27T11:04:43.597Z,31.40
2018-02-27T11:07:12.749Z,32.80
2018-02-27T11:09:40.958Z,32.70
2018-02-27T11:12:09.856Z,32.80
2018-02-27T11:14:38.890Z,32.30
2018-02-27T11:17:07.220Z,32.80
2018-02-27T11:19:36.312Z,32.70
2018-02-27T11:22:05.352Z,32.70
2018-02-27T11:24:33.904Z,32.70
2018-02-27T11:27:02.180Z,32.50
2018-02-27T11:29:30.424Z,32.70
2018-02-27T11:31:59.567Z,32.40
2018-02-27T11:34:27.808Z,32.40
2018-02-27T11:36:56.991Z,32.70
2018-02-27T11:39:25.270Z,32.60
2018-02-27T11:41:53.506Z,32.40
2018-02-27T11:44:23.026Z,32.80
2018-02-27T11:46:51.326Z,32.70
2018-02-27T11:49:19.577Z,32.70
2018-02-27T11:51:48.328Z,32.40
2018-02-27T11:54:16.593Z,32.40
2018-02-27T11:56:44.844Z,32.20
2018-02-27T11:59:13.097Z,32.20
2018-02-27T12:01:41.506Z,32.30
2018-02-27T12:04:10.501Z,32.30
2018-02-27T12:06:38.752Z,32.20
2018-02-27T12:09:07.009Z,32.20
2018-02-27T12:11:35.273Z,32.90
2018-02-27T12:14:03.563Z,32.00
2018-02-27T12:16:31.905Z,31.90
2018-02-27T12:19:00.129Z,31.80
2018-02-27T12:21:28.465Z,31.90
2018-02-27T12:23:56.822Z,31.90
2018-02-27T12:26:26.068Z,31.90
2018-02-27T12:28:54.301Z,31.70
2018-02-27T12:31:23.312Z,31.50
2018-02-27T12:33:51.658Z,31.30
2018-02-27T12:36:20.764Z,31.30
2018-02-27T12:38:49.760Z,31.70
2018-02-27T12:41:18.219Z,31.60
2018-02-27T12:43:46.438Z,31.70
2018-02-27T12:46:14.691Z,31.60
2018-02-27T12:48:42.955Z,31.70
2018-02-27T12:51:11.249Z,31.60
2018-02-27T12:53:39.553Z,31.40
2018-02-27T12:56:07.883Z,31.70
2018-02-27T12:58:36.077Z,31.50
2018-02-27T13:01:04.425Z,31.40
2018-02-27T13:03:32.645Z,31.30
2018-02-27T13:06:01.788Z,31.60
2018-02-27T13:08:30.841Z,30.90
2018-02-27T13:10:59.096Z,31.20
2018-02-27T13:13:27.361Z,31.40
2018-02-27T13:15:56.417Z,31.50
2018-02-27T13:18:24.642Z,31.40
2018-02-27T13:20:52.885Z,31.60
2018-02-27T13:23:22.021Z,31.10
2018-02-27T13:25:50.835Z,30.90
2018-02-27T13:28:19.071Z,31.30
2018-02-27T13:30:48.158Z,32.10
2018-02-27T13:33:17.260Z,31.80
2018-02-27T13:35:46.377Z,32.00
2018-02-27T13:38:14.635Z,31.70
2018-02-27T13:40:43.786Z,31.60
2018-02-27T13:43:12.038Z,31.60
2018-02-27T13:45:40.298Z,31.50
2018-02-27T13:48:08.644Z,31.40
2018-02-27T13:50:37.502Z,31.80
2018-02-27T13:53:05.805Z,31.70
2018-02-27T13:55:34.919Z,31.80
2018-02-27T13:58:03.175Z,31.60
2018-02-27T14:00:32.830Z,31.50
2018-02-27T14:03:01.065Z,31.60
2018-02-27T14:05:29.311Z,31.40
2018-02-27T14:07:57.572Z,31.50
2018-02-27T14:10:25.821Z,31.80
2018-02-27T14:12:55.033Z,31.80
2018-02-27T14:15:23.360Z,31.60
2018-02-27T14:17:51.673Z,31.80
2018-02-27T14:20:19.921Z,31.90
2018-02-27T14:22:49.112Z,31.80
2018-02-27T14:25:17.358Z,31.90
2018-02-27T14:27:46.437Z,31.70
2018-02-27T14:30:18.652Z,31.80
2018-02-27T14:32:46.930Z,31.90
2018-02-27T14:35:15.191Z,31.50
2018-02-27T14:37:43.945Z,31.60
2018-02-27T14:40:13.244Z,31.70
2018-02-27T14:42:41.669Z,31.90
2018-02-27T14:45:10.733Z,31.80
2018-02-27T14:47:39.029Z,31.80
2018-02-27T14:50:07.299Z,32.00
2018-02-27T14:52:36.544Z,31.70
2018-02-27T14:55:04.816Z,31.20
2018-02-27T14:57:33.040Z,31.50
2018-02-27T15:00:01.285Z,31.50
2018-02-27T15:02:29.681Z,31.40
2018-02-27T15:04:59.449Z,31.40
2018-02-27T15:07:27.672Z,31.10
2018-02-27T15:09:55.997Z,31.00
2018-02-27T15:12:24.467Z,31.30
2018-02-27T15:14:52.710Z,31.20
2018-02-27T15:17:22.023Z,30.90
2018-02-27T15:19:51.312Z,30.70
2018-02-27T15:22:19.587Z,30.70
2018-02-27T15:24:47.850Z,30.50
2018-02-27T15:27:16.131Z,30.80
2018-02-27T15:29:44.384Z,30.70
2018-02-27T15:32:12.653Z,30.60
2018-02-27T15:34:41.148Z,29.90
2018-02-27T15:37:09.407Z,30.90
2018-02-27T15:39:38.304Z,30.60
2018-02-27T15:42:06.586Z,30.60
2018-02-27T15:44:34.841Z,31.00
2018-02-27T15:47:03.141Z,31.10
2018-02-27T15:49:32.303Z,31.30
2018-02-27T15:52:00.623Z,31.30
2018-02-27T15:54:29.002Z,31.00
2018-02-27T15:56:57.243Z,31.00
2018-02-27T15:59:25.506Z,31.00
2018-02-27T16:01:53.762Z,31.10
2018-02-27T16:04:22.179Z,31.10
2018-02-27T16:06:50.375Z,31.30
2018-02-27T16:09:19.382Z,31.20
2018-02-27T16:11:47.626Z,31.10
2018-02-27T16:14:16.086Z,31.00
2018-02-27T16:16:44.323Z,31.00
2018-02-27T16:19:12.775Z,31.20
2018-02-27T16:21:41.120Z,31.10
2018-02-27T16:24:10.153Z,31.00
2018-02-27T16:26:38.577Z,31.00
2018-02-27T16:29:06.805Z,31.00
2018-02-27T16:31:35.142Z,31.10
2018-02-27T16:34:03.708Z,31.00
2018-02-27T16:36:32.085Z,31.30
2018-02-27T16:39:00.326Z,31.00
2018-02-27T16:41:28.666Z,31.10
2018-02-27T16:43:57.169Z,31.10
2018-02-27T16:46:25.381Z,31.00
2018-02-27T16:48:53.646Z,31.10
2018-02-27T16:51:21.940Z,31.00
2018-02-27T16:53:50.308Z,31.20
2018-02-27T16:56:18.785Z,30.40
2018-02-27T16:58:47.153Z,31.00
2018-02-27T17:01:16.419Z,30.90
2018-02-27T17:03:44.656Z,31.10
2018-02-27T17:06:12.935Z,31.20
2018-02-27T17:08:41.169Z,31.30
2018-02-27T17:11:11.891Z,31.30
2018-02-27T17:13:40.882Z,31.30
2018-02-27T17:16:09.165Z,31.30
2018-02-27T17:18:37.398Z,31.40
2018-02-27T17:21:05.635Z,31.30
2018-02-27T17:23:33.866Z,31.30
2018-02-27T17:26:02.986Z,32.00
2018-02-27T17:28:31.234Z,31.50
2018-02-27T17:30:59.524Z,31.60
2018-02-27T17:33:28.646Z,31.40
2018-02-27T17:35:57.119Z,31.50
2018-02-27T17:38:25.473Z,31.60
2018-02-27T17:40:53.757Z,31.70
2018-02-27T17:43:22.765Z,31.70
2018-02-27T17:45:51.022Z,31.80
2018-02-27T17:48:20.142Z,31.60
2018-02-27T17:50:48.385Z,31.80
2018-02-27T17:53:16.619Z,31.80
2018-02-27T17:55:44.921Z,31.60
2018-02-27T17:58:14.025Z,31.90
2018-02-27T18:00:42.265Z,31.60
2018-02-27T18:03:11.461Z,31.60
2018-02-27T18:05:39.961Z,31.70
2018-02-27T18:08:08.217Z,31.60
2018-02-27T18:10:36.510Z,31.90
2018-02-27T18:13:04.940Z,31.80
2018-02-27T18:15:34.936Z,31.70
2018-02-27T18:18:04.796Z,31.80
2018-02-27T18:20:34.006Z,31.60
2018-02-27T18:23:02.284Z,31.60
2018-02-27T18:25:30.621Z,31.90
2018-02-27T18:27:59.793Z,31.80
2018-02-27T18:30:28.029Z,31.80
2018-02-27T18:32:56.299Z,31.90
2018-02-27T18:35:25.495Z,31.70
2018-02-27T18:37:53.874Z,31.70
2018-02-27T18:40:22.956Z,31.80
2018-02-27T18:42:51.979Z,31.90
2018-02-27T18:45:20.339Z,31.90
2018-02-27T18:47:48.606Z,31.70
2018-02-27T18:50:16.856Z,31.70
2018-02-27T18:52:45.871Z,32.00
2018-02-27T18:55:14.237Z,32.10
2018-02-27T18:57:42.513Z,32.10
2018-02-27T19:00:12.512Z,31.90
2018-02-27T19:02:42.796Z,31.70
2018-02-27T19:05:11.045Z,31.70
2018-02-27T19:07:39.412Z,31.90
2018-02-27T19:10:08.529Z,31.40
2018-02-27T19:12:36.801Z,31.40
2018-02-27T19:15:05.941Z,31.60
2018-02-27T19:17:34.178Z,31.40
2018-02-27T19:20:02.467Z,31.60
2018-02-27T19:22:30.713Z,31.70
2018-02-27T19:24:59.823Z,31.70
2018-02-27T19:27:29.084Z,31.70
2018-02-27T19:29:57.352Z,31.70
2018-02-27T19:32:26.445Z,32.10
2018-02-27T19:34:54.794Z,32.00
2018-02-27T19:37:23.035Z,32.00
2018-02-27T19:39:51.316Z,32.10
2018-02-27T19:42:20.398Z,32.40
2018-02-27T19:44:48.673Z,32.30
2018-02-27T19:47:16.939Z,32.50
2018-02-27T19:49:46.920Z,32.40
2018-02-27T19:52:15.422Z,32.60
2018-02-27T19:54:43.712Z,32.30
2018-02-27T19:57:11.967Z,32.90
2018-02-27T19:59:44.996Z,33.10
2018-02-27T20:02:13.352Z,33.20
2018-02-27T20:04:41.648Z,33.30
2018-02-27T20:07:09.915Z,33.40
2018-02-27T20:09:41.123Z,33.70
2018-02-27T20:12:09.621Z,33.70
2018-02-27T20:14:38.086Z,33.90
2018-02-27T20:17:06.334Z,33.90
2018-02-27T20:19:34.774Z,33.90
2018-02-27T20:22:03.923Z,34.30
2018-02-27T20:24:32.177Z,34.10
2018-02-27T20:27:00.589Z,34.50
2018-02-27T20:29:28.968Z,34.70
2018-02-27T20:31:57.181Z,35.10
2018-02-27T20:34:32.029Z,35.30
2018-02-27T20:37:00.315Z,35.10
2018-02-27T20:39:28.638Z,35.40
2018-02-27T20:41:56.891Z,36.00
2018-02-27T20:44:25.170Z,36.20
2018-02-27T20:46:53.417Z,36.70
2018-02-27T20:49:21.955Z,37.00
2018-02-27T20:51:50.203Z,37.20
2018-02-27T20:54:18.480Z,37.50
2018-02-27T20:56:46.782Z,37.50
2018-02-27T20:59:15.189Z,37.70
2018-02-27T21:01:43.491Z,36.80
2018-02-27T21:04:11.752Z,38.00
2018-02-27T21:06:40.207Z,38.10
2018-02-27T21:09:08.605Z,38.20
2018-02-27T21:11:37.003Z,38.40
2018-02-27T21:14:05.357Z,38.70
2018-02-27T21:16:33.580Z,38.90
2018-02-27T21:19:01.808Z,38.80
2018-02-27T21:21:30.105Z,39.20
2018-02-27T21:23:58.362Z,39.00
2018-02-27T21:26:26.638Z,39.00
2018-02-27T21:28:55.737Z,39.40
2018-02-27T21:31:24.824Z,39.40
2018-02-27T21:33:53.968Z,39.70
2018-02-27T21:36:22.222Z,39.70
2018-02-27T21:38:50.536Z,39.70
2018-02-27T21:41:19.567Z,39.80
2018-02-27T21:43:48.723Z,39.80
2018-02-27T21:46:16.983Z,39.80
2018-02-27T21:48:46.048Z,39.80
2018-02-27T21:51:14.527Z,40.10
2018-02-27T21:53:43.611Z,39.80
2018-02-27T21:56:12.597Z,40.00
2018-02-27T21:58:40.870Z,40.00
2018-02-27T22:01:09.089Z,40.00
2018-02-27T22:03:37.472Z,40.30
2018-02-27T22:06:05.865Z,40.30
2018-02-27T22:08:34.142Z,40.60
2018-02-27T22:11:02.509Z,40.50
2018-02-27T22:13:30.855Z,40.00
2018-02-27T22:15:59.136Z,40.30
2018-02-27T22:18:27.370Z,40.70
2018-02-27T22:20:55.665Z,40.80
2018-02-27T22:23:24.788Z,41.00
2018-02-27T22:25:53.079Z,41.10
2018-02-27T22:28:21.353Z,41.00
2018-02-27T22:30:49.630Z,41.00
2018-02-27T22:33:17.871Z,40.90
2018-02-27T22:35:46.984Z,41.30
2018-02-27T22:38:16.994Z,41.30
2018-02-27T22:40:45.263Z,41.60
2018-02-27T22:43:14.663Z,41.70
2018-02-27T22:45:42.955Z,41.80
2018-02-27T22:48:11.224Z,42.00
2018-02-27T22:50:39.621Z,42.10
2018-02-27T22:53:07.973Z,42.30
2018-02-27T22:55:36.841Z,42.60
2018-02-27T22:58:05.061Z,42.40
2018-02-27T23:00:40.462Z,41.90
2018-02-27T23:03:08.767Z,42.90
2018-02-27T23:05:37.931Z,42.80
2018-02-27T23:08:06.978Z,42.90
2018-02-27T23:10:35.369Z,43.20
2018-02-27T23:13:03.617Z,43.00
2018-02-27T23:15:31.888Z,43.40
2018-02-27T23:18:01.190Z,43.30
2018-02-27T23:20:29.545Z,43.10
2018-02-27T23:22:57.865Z,43.30
2018-02-27T23:25:32.947Z,43.30
2018-02-27T23:28:07.921Z,43.30
2018-02-27T23:30:36.494Z,43.40
2018-02-27T23:33:07.169Z,43.60
2018-02-27T23:35:37.334Z,43.60
2018-02-27T23:38:05.761Z,43.70
2018-02-27T23:40:34.038Z,43.70
2018-02-27T23:43:02.275Z,43.40
2018-02-27T23:45:30.601Z,43.30
2018-02-27T23:47:58.931Z,43.00
2018-02-27T23:50:27.133Z,43.80
2018-02-27T23:52:55.354Z,43.50
2018-02-27T23:55:23.600Z,43.40
2018-02-27T23:57:51.934Z,43.50
